createdAt,value
2019-06-26T00:01:02.413Z,24.60
2019-06-26T00:03:32.814Z,24.60
2019-06-26T00:06:03.284Z,24.60
2019-06-26T00:08:33.905Z,24.60
2019-06-26T00:11:05.149Z,24.70
2019-06-26T00:13:35.461Z,24.80
2019-06-26T00:16:05.828Z,24.70
2019-06-26T00:18:35.998Z,24.60
2019-06-26T00:21:06.419Z,24.70
2019-06-26T00:23:36.765Z,24.60
2019-06-26T00:26:07.243Z,24.60
2019-06-26T00:28:37.626Z,24.70
2019-06-26T00:31:07.952Z,24.80
2019-06-26T00:33:38.700Z,25.00
2019-06-26T00:36:09.067Z,24.90
2019-06-26T00:38:40.129Z,24.90
2019-06-26T00:41:10.662Z,25.00
2019-06-26T00:43:42.981Z,25.00
2019-06-26T00:46:13.608Z,24.90
2019-06-26T00:48:44.564Z,24.80
2019-06-26T00:51:15.430Z,24.90
2019-06-26T00:53:46.273Z,25.00
2019-06-26T00:56:18.431Z,24.90
2019-06-26T00:58:48.620Z,24.80
2019-06-26T01:01:20.522Z,24.90
2019-06-26T01:03:52.429Z,24.90
2019-06-26T01:06:40.327Z,25.00
2019-06-26T01:09:10.919Z,25.00
2019-06-26T01:11:41.497Z,25.10
2019-06-26T01:14:12.338Z,25.10
2019-06-26T01:16:44.682Z,25.10
2019-06-26T01:19:17.995Z,25.20
2019-06-26T01:21:49.031Z,25.10
2019-06-26T01:24:19.216Z,25.10
2019-06-26T01:26:49.481Z,25.20
2019-06-26T01:29:19.762Z,25.10
2019-06-26T01:31:50.118Z,25.20
2019-06-26T01:34:20.488Z,25.30
2019-06-26T01:36:50.879Z,25.30
2019-06-26T01:39:21.096Z,25.50
2019-06-26T01:41:51.543Z,25.60
2019-06-26T01:44:21.780Z,25.60
2019-06-26T01:46:52.529Z,25.70
2019-06-26T01:49:23.125Z,25.70
2019-06-26T01:51:53.331Z,25.70
2019-06-26T01:54:23.781Z,25.70
2019-06-26T01:56:54.682Z,25.70
2019-06-26T01:59:25.119Z,25.70
2019-06-26T02:01:55.261Z,25.70
2019-06-26T02:04:25.719Z,25.70
2019-06-26T02:06:56.095Z,25.70
2019-06-26T02:09:26.526Z,25.60
2019-06-26T02:12:00.315Z,25.70
2019-06-26T02:14:31.388Z,25.70
2019-06-26T02:17:01.021Z,25.70
2019-06-26T02:19:31.341Z,25.60
2019-06-26T02:22:02.974Z,25.60
2019-06-26T02:24:33.703Z,25.60
2019-06-26T02:27:04.144Z,25.60
2019-06-26T02:29:34.650Z,25.50
2019-06-26T02:32:05.188Z,25.50
2019-06-26T02:34:35.544Z,25.60
2019-06-26T02:37:06.089Z,25.50
2019-06-26T02:39:36.361Z,25.60
2019-06-26T02:42:06.857Z,25.60
2019-06-26T02:44:52.153Z,25.70
2019-06-26T02:47:19.357Z,25.60
2019-06-26T02:49:41.880Z,25.60
2019-06-26T02:52:12.063Z,25.60
2019-06-26T02:54:42.468Z,25.50
2019-06-26T02:57:12.873Z,25.50
2019-06-26T02:59:43.012Z,25.50
2019-06-26T03:02:13.530Z,25.50
2019-06-26T03:04:43.931Z,25.50
2019-06-26T03:07:14.282Z,25.60
2019-06-26T03:09:45.331Z,25.60
2019-06-26T03:12:15.742Z,25.60
2019-06-26T03:14:46.162Z,25.70
2019-06-26T03:17:16.504Z,25.70
2019-06-26T03:19:46.764Z,25.70
2019-06-26T03:22:17.294Z,25.70
2019-06-26T03:24:47.883Z,25.70
2019-06-26T03:27:19.340Z,25.60
2019-06-26T03:29:49.711Z,25.60
2019-06-26T03:32:20.030Z,25.70
2019-06-26T03:34:50.448Z,25.70
2019-06-26T03:37:20.907Z,25.70
2019-06-26T03:39:51.263Z,25.70
2019-06-26T03:42:21.799Z,25.80
2019-06-26T03:44:52.167Z,25.80
2019-06-26T03:47:22.385Z,25.90
2019-06-26T03:49:52.707Z,26.00
2019-06-26T03:52:23.128Z,26.00
2019-06-26T03:54:53.400Z,25.90
2019-06-26T03:57:23.765Z,25.80
2019-06-26T03:59:54.078Z,25.90
2019-06-26T04:02:24.674Z,25.90
2019-06-26T04:04:55.429Z,25.80
2019-06-26T04:07:25.792Z,26.00
2019-06-26T04:09:56.242Z,26.00
2019-06-26T04:12:26.510Z,26.10
2019-06-26T04:14:56.842Z,26.20
2019-06-26T04:17:27.375Z,26.20
2019-06-26T04:19:57.795Z,26.20
2019-06-26T04:22:28.568Z,26.20
2019-06-26T04:24:59.178Z,26.20
2019-06-26T04:27:30.337Z,26.10
2019-06-26T04:30:00.705Z,26.30
2019-06-26T04:32:34.422Z,26.30
2019-06-26T04:35:05.087Z,26.40
2019-06-26T04:37:36.072Z,26.30
2019-06-26T04:40:07.063Z,26.40
2019-06-26T04:42:37.789Z,26.40
2019-06-26T04:45:08.847Z,26.30
2019-06-26T04:47:39.576Z,26.20
2019-06-26T04:50:11.689Z,26.40
2019-06-26T04:52:42.054Z,26.30
2019-06-26T04:55:12.842Z,26.40
2019-06-26T04:57:43.289Z,26.30
2019-06-26T05:00:16.299Z,26.50
2019-06-26T05:02:46.594Z,26.50
2019-06-26T05:05:17.141Z,26.50
2019-06-26T05:07:47.663Z,26.60
2019-06-26T05:10:19.310Z,26.50
2019-06-26T05:12:49.714Z,26.50
2019-06-26T05:15:20.947Z,26.40
2019-06-26T05:17:51.346Z,26.40
2019-06-26T05:20:22.421Z,26.50
2019-06-26T05:22:52.684Z,26.50
2019-06-26T05:25:23.398Z,26.50
2019-06-26T05:27:53.713Z,26.50
2019-06-26T05:30:24.268Z,26.60
2019-06-26T05:32:54.772Z,26.60
2019-06-26T05:35:25.069Z,26.60
2019-06-26T05:37:55.405Z,26.70
2019-06-26T05:40:25.698Z,26.80
2019-06-26T05:42:56.084Z,26.90
2019-06-26T05:45:27.595Z,27.00
2019-06-26T05:47:58.562Z,27.10
2019-06-26T05:50:29.027Z,27.10
2019-06-26T05:52:59.159Z,27.10
2019-06-26T05:55:29.567Z,27.10
2019-06-26T05:57:59.979Z,27.20
2019-06-26T06:00:30.113Z,27.30
2019-06-26T06:03:00.474Z,27.30
2019-06-26T06:05:30.952Z,27.40
2019-06-26T06:08:01.670Z,27.40
2019-06-26T06:10:31.994Z,27.40
2019-06-26T06:13:02.477Z,27.50
2019-06-26T06:15:32.882Z,27.60
2019-06-26T06:18:03.325Z,27.70
2019-06-26T06:20:39.004Z,27.80
2019-06-26T06:23:09.594Z,27.90
2019-06-26T06:25:40.196Z,27.90
2019-06-26T06:28:10.606Z,28.00
2019-06-26T06:30:41.022Z,28.00
2019-06-26T06:33:11.510Z,28.10
2019-06-26T06:35:41.831Z,28.10
2019-06-26T06:38:12.315Z,28.20
2019-06-26T06:40:42.754Z,28.40
2019-06-26T06:43:14.952Z,28.30
2019-06-26T06:45:45.669Z,28.40
2019-06-26T06:48:16.317Z,28.50
2019-06-26T06:50:46.864Z,28.70
2019-06-26T06:53:17.370Z,28.70
2019-06-26T06:55:47.884Z,28.70
2019-06-26T06:58:18.328Z,28.80
2019-06-26T07:00:48.626Z,28.80
2019-06-26T07:03:19.091Z,28.80
2019-06-26T07:05:49.343Z,29.00
2019-06-26T07:08:19.739Z,29.00
2019-06-26T07:10:50.817Z,29.10
2019-06-26T07:13:22.065Z,29.20
2019-06-26T07:15:52.527Z,29.10
2019-06-26T07:18:23.064Z,29.20
2019-06-26T07:20:53.414Z,29.30
2019-06-26T07:23:23.756Z,29.30
2019-06-26T07:25:54.110Z,29.40
2019-06-26T07:28:24.530Z,29.50
2019-06-26T07:30:55.212Z,29.70
2019-06-26T07:33:25.657Z,29.70
2019-06-26T07:35:56.045Z,29.80
2019-06-26T07:38:26.643Z,29.90
2019-06-26T07:40:57.130Z,29.90
2019-06-26T07:43:29.029Z,30.00
2019-06-26T07:45:59.844Z,30.20
2019-06-26T07:48:30.254Z,30.30
2019-06-26T07:51:00.512Z,30.30
2019-06-26T07:53:31.312Z,30.30
2019-06-26T07:56:01.774Z,30.30
2019-06-26T07:58:32.235Z,30.30
2019-06-26T08:01:02.601Z,30.40
2019-06-26T08:03:33.677Z,30.50
2019-06-26T08:06:04.082Z,30.50
2019-06-26T08:08:34.337Z,30.60
2019-06-26T08:11:07.703Z,30.60
2019-06-26T08:13:38.453Z,30.60
2019-06-26T08:16:08.858Z,30.70
2019-06-26T08:18:39.315Z,30.80
2019-06-26T08:21:12.549Z,30.90
2019-06-26T08:23:41.796Z,30.90
2019-06-26T08:26:12.143Z,31.00
2019-06-26T08:28:42.404Z,31.00
2019-06-26T08:31:12.910Z,31.00
2019-06-26T08:33:43.599Z,31.10
2019-06-26T08:36:13.805Z,31.10
2019-06-26T08:38:44.155Z,31.10
2019-06-26T08:41:14.651Z,31.20
2019-06-26T08:43:45.065Z,31.30
2019-06-26T08:46:16.042Z,31.30
2019-06-26T08:48:46.874Z,31.20
2019-06-26T08:51:17.159Z,31.30
2019-06-26T08:53:47.518Z,31.30
2019-06-26T08:56:17.858Z,31.50
2019-06-26T08:58:48.194Z,31.50
2019-06-26T09:01:18.379Z,31.60
2019-06-26T09:03:48.855Z,31.60
2019-06-26T09:06:19.389Z,31.70
2019-06-26T09:08:50.234Z,31.70
2019-06-26T09:11:20.456Z,31.80
2019-06-26T09:13:50.713Z,31.70
2019-06-26T09:16:21.130Z,31.80
2019-06-26T09:18:51.393Z,31.90
2019-06-26T09:21:21.750Z,32.00
2019-06-26T09:23:52.004Z,32.10
2019-06-26T09:26:22.861Z,32.30
2019-06-26T09:28:55.329Z,32.30
2019-06-26T09:31:25.717Z,32.30
2019-06-26T09:33:56.016Z,32.10
2019-06-26T09:36:26.417Z,32.10
2019-06-26T09:38:57.973Z,32.00
2019-06-26T09:41:28.459Z,31.70
2019-06-26T09:43:58.755Z,31.60
2019-06-26T09:46:28.916Z,31.60
2019-06-26T09:49:01.986Z,31.50
2019-06-26T09:51:32.499Z,31.30
2019-06-26T09:54:02.842Z,31.20
2019-06-26T09:56:33.282Z,31.10
2019-06-26T09:59:04.468Z,31.10
2019-06-26T10:01:35.143Z,31.10
2019-06-26T10:04:05.824Z,31.00
2019-06-26T10:06:36.792Z,30.80
2019-06-26T10:09:08.703Z,30.40
2019-06-26T10:11:39.256Z,30.20
2019-06-26T10:14:09.663Z,30.00
2019-06-26T10:16:40.010Z,29.70
2019-06-26T10:19:11.064Z,29.60
2019-06-26T10:21:42.710Z,29.50
2019-06-26T10:24:13.633Z,29.30
2019-06-26T10:26:44.138Z,29.30
2019-06-26T10:29:15.112Z,29.30
2019-06-26T10:31:45.539Z,29.30
2019-06-26T10:34:15.842Z,29.40
2019-06-26T10:36:46.926Z,29.40
2019-06-26T10:39:17.388Z,29.40
2019-06-26T10:41:48.210Z,29.40
2019-06-26T10:44:18.460Z,29.40
2019-06-26T10:46:49.428Z,29.50
2019-06-26T10:49:26.939Z,29.60
2019-06-26T10:51:51.804Z,29.70
2019-06-26T10:54:22.512Z,29.70
2019-06-26T10:56:53.230Z,29.80
2019-06-26T10:59:23.673Z,29.70
2019-06-26T11:01:57.819Z,29.70
2019-06-26T11:04:31.439Z,29.60
2019-06-26T11:07:01.859Z,29.70
2019-06-26T11:09:32.788Z,29.60
2019-06-26T11:12:02.975Z,29.70
2019-06-26T11:14:33.105Z,29.80
2019-06-26T11:17:03.448Z,29.80
2019-06-26T11:19:43.367Z,29.80
2019-06-26T11:22:05.874Z,29.70
2019-06-26T11:24:36.945Z,29.80
2019-06-26T11:27:07.213Z,29.80
2019-06-26T11:29:37.405Z,29.80
2019-06-26T11:32:09.691Z,29.90
2019-06-26T11:34:40.277Z,30.00
2019-06-26T11:37:11.185Z,30.20
2019-06-26T11:39:41.609Z,30.30
2019-06-26T11:42:12.219Z,30.50
2019-06-26T11:44:42.502Z,30.60
2019-06-26T11:47:12.811Z,30.70
2019-06-26T11:49:55.885Z,30.70
2019-06-26T11:52:15.076Z,30.90
2019-06-26T11:54:58.291Z,31.10
2019-06-26T11:57:17.852Z,31.40
2019-06-26T11:59:48.073Z,31.60
2019-06-26T12:02:18.496Z,31.70
2019-06-26T12:04:49.097Z,32.00
2019-06-26T12:07:20.308Z,32.00
2019-06-26T12:09:51.302Z,32.10
2019-06-26T12:12:22.192Z,32.20
2019-06-26T12:14:52.580Z,32.40
2019-06-26T12:17:23.067Z,32.60
2019-06-26T12:19:53.417Z,32.70
2019-06-26T12:22:24.293Z,32.70
2019-06-26T12:24:55.076Z,32.80
2019-06-26T12:27:25.949Z,32.90
2019-06-26T12:29:56.182Z,33.00
2019-06-26T12:32:28.270Z,33.10
2019-06-26T12:34:59.335Z,33.10
2019-06-26T12:37:37.615Z,33.20
2019-06-26T12:40:02.545Z,33.30
2019-06-26T12:42:33.228Z,33.30
2019-06-26T12:45:03.497Z,33.20
2019-06-26T12:47:33.795Z,33.20
2019-06-26T12:50:05.533Z,33.30
2019-06-26T12:52:35.972Z,33.30
2019-06-26T12:55:06.967Z,33.40
2019-06-26T12:57:37.460Z,33.30
2019-06-26T13:00:08.793Z,33.30
2019-06-26T13:02:39.151Z,33.40
2019-06-26T13:05:09.769Z,33.60
2019-06-26T13:07:40.141Z,33.50
2019-06-26T13:10:11.321Z,33.60
2019-06-26T13:12:45.636Z,33.60
2019-06-26T13:15:15.645Z,33.60
2019-06-26T13:17:46.013Z,33.60
2019-06-26T13:20:16.614Z,33.60
2019-06-26T13:22:46.904Z,33.40
2019-06-26T13:25:17.607Z,33.20
2019-06-26T13:27:49.050Z,33.00
2019-06-26T13:30:24.732Z,33.10
2019-06-26T13:32:54.999Z,33.20
2019-06-26T13:35:25.412Z,33.20
2019-06-26T13:37:55.815Z,33.20
2019-06-26T13:40:26.176Z,33.20
2019-06-26T13:42:56.877Z,33.30
2019-06-26T13:45:28.337Z,33.30
2019-06-26T13:47:58.766Z,33.30
2019-06-26T13:50:29.260Z,33.30
2019-06-26T13:52:59.528Z,33.40
2019-06-26T13:55:29.820Z,33.40
2019-06-26T13:58:01.291Z,33.30
2019-06-26T14:00:31.515Z,33.50
2019-06-26T14:03:01.812Z,33.50
2019-06-26T14:05:32.241Z,33.60
2019-06-26T14:08:02.556Z,33.60
2019-06-26T14:10:32.932Z,33.60
2019-06-26T14:13:03.283Z,33.60
2019-06-26T14:15:33.695Z,33.60
2019-06-26T14:18:04.784Z,33.80
2019-06-26T14:20:35.216Z,33.80
2019-06-26T14:23:05.618Z,33.70
2019-06-26T14:25:36.051Z,33.80
2019-06-26T14:28:06.665Z,33.80
2019-06-26T14:30:37.082Z,33.90
2019-06-26T14:33:07.516Z,33.80
2019-06-26T14:35:38.279Z,33.70
2019-06-26T14:38:08.594Z,33.80
2019-06-26T14:40:39.225Z,33.80
2019-06-26T14:43:09.696Z,33.90
2019-06-26T14:45:40.437Z,33.90
2019-06-26T14:48:10.984Z,33.90
2019-06-26T14:50:41.571Z,33.80
2019-06-26T14:53:11.881Z,33.80
2019-06-26T14:55:42.081Z,33.80
2019-06-26T14:58:12.489Z,33.70
2019-06-26T15:00:42.912Z,33.80
2019-06-26T15:03:13.147Z,33.80
2019-06-26T15:05:43.593Z,33.90
2019-06-26T15:08:16.997Z,34.00
2019-06-26T15:10:47.162Z,34.10
2019-06-26T15:13:17.641Z,34.00
2019-06-26T15:15:48.046Z,34.10
2019-06-26T15:18:20.700Z,34.10
2019-06-26T15:20:51.091Z,34.10
2019-06-26T15:23:21.375Z,34.10
2019-06-26T15:25:51.921Z,34.10
2019-06-26T15:28:22.335Z,34.10
2019-06-26T15:30:52.804Z,34.10
2019-06-26T15:33:23.045Z,34.10
2019-06-26T15:35:53.839Z,34.00
2019-06-26T15:38:24.191Z,34.00
2019-06-26T15:40:56.763Z,33.80
2019-06-26T15:43:27.005Z,33.70
2019-06-26T15:45:57.231Z,33.80
2019-06-26T15:48:28.004Z,33.80
2019-06-26T15:50:58.267Z,33.80
2019-06-26T15:53:28.629Z,33.80
2019-06-26T15:55:58.979Z,33.80
2019-06-26T15:58:29.526Z,33.80
2019-06-26T16:00:59.730Z,33.70
2019-06-26T16:03:29.994Z,33.50
2019-06-26T16:06:00.454Z,33.40
2019-06-26T16:08:31.081Z,33.40
2019-06-26T16:11:01.321Z,33.40
2019-06-26T16:13:31.673Z,33.40
2019-06-26T16:16:02.015Z,33.40
2019-06-26T16:18:43.330Z,33.40
2019-06-26T16:21:13.646Z,33.30
2019-06-26T16:23:44.298Z,33.30
2019-06-26T16:26:14.565Z,33.20
2019-06-26T16:28:44.964Z,33.10
2019-06-26T16:31:15.171Z,33.00
2019-06-26T16:33:45.592Z,33.00
2019-06-26T16:36:16.337Z,32.90
2019-06-26T16:38:46.946Z,32.80
2019-06-26T16:41:17.206Z,32.80
2019-06-26T16:43:47.414Z,32.80
2019-06-26T16:46:18.401Z,32.60
2019-06-26T16:48:48.824Z,32.60
2019-06-26T16:51:20.196Z,32.40
2019-06-26T16:53:50.679Z,32.30
2019-06-26T16:56:21.152Z,32.20
2019-06-26T16:58:51.745Z,32.10
2019-06-26T17:01:22.317Z,31.90
2019-06-26T17:03:52.531Z,31.90
2019-06-26T17:06:23.241Z,31.70
2019-06-26T17:08:53.526Z,31.50
2019-06-26T17:11:25.186Z,31.40
2019-06-26T17:13:55.964Z,31.30
2019-06-26T17:16:26.334Z,31.20
2019-06-26T17:18:56.725Z,31.10
2019-06-26T17:21:27.435Z,30.90
2019-06-26T17:23:58.142Z,30.80
2019-06-26T17:26:28.627Z,30.80
2019-06-26T17:28:59.910Z,30.70
2019-06-26T17:31:30.268Z,30.60
2019-06-26T17:34:00.662Z,30.60
2019-06-26T17:36:30.972Z,30.50
2019-06-26T17:39:01.343Z,30.40
2019-06-26T17:41:31.756Z,30.40
2019-06-26T17:44:02.132Z,30.30
2019-06-26T17:46:33.053Z,30.30
2019-06-26T17:49:03.203Z,30.20
2019-06-26T17:51:33.831Z,30.10
2019-06-26T17:54:04.567Z,30.00
2019-06-26T17:56:35.533Z,30.00
2019-06-26T17:59:06.325Z,30.00
2019-06-26T18:01:38.765Z,29.90
2019-06-26T18:04:09.207Z,29.90
2019-06-26T18:06:39.866Z,29.80
2019-06-26T18:09:12.276Z,29.80
2019-06-26T18:11:42.975Z,29.70
2019-06-26T18:14:13.617Z,29.60
2019-06-26T18:16:44.060Z,29.60
2019-06-26T18:19:14.797Z,29.60
2019-06-26T18:21:46.281Z,29.50
2019-06-26T18:24:16.555Z,29.40
2019-06-26T18:26:47.084Z,29.30
2019-06-26T18:29:17.615Z,29.30
2019-06-26T18:31:48.023Z,29.30
2019-06-26T18:34:18.459Z,29.20
2019-06-26T18:36:48.789Z,29.20
2019-06-26T18:39:20.304Z,29.10
2019-06-26T18:41:53.640Z,29.00
2019-06-26T18:44:24.013Z,29.10
2019-06-26T18:46:55.244Z,29.10
2019-06-26T18:49:25.742Z,29.10
2019-06-26T18:51:56.175Z,29.00
2019-06-26T18:54:27.790Z,29.00
2019-06-26T18:56:58.465Z,28.90
2019-06-26T18:59:29.895Z,28.90
2019-06-26T19:02:01.485Z,28.90
2019-06-26T19:04:31.972Z,28.90
2019-06-26T19:07:02.482Z,28.90
2019-06-26T19:09:32.983Z,28.90
2019-06-26T19:12:03.307Z,28.80
2019-06-26T19:14:34.048Z,28.80
2019-06-26T19:17:05.044Z,28.80
2019-06-26T19:19:35.217Z,28.70
2019-06-26T19:22:05.837Z,28.70
2019-06-26T19:24:36.294Z,28.70
2019-06-26T19:27:07.817Z,28.70
2019-06-26T19:29:39.227Z,28.60
2019-06-26T19:32:10.184Z,28.60
2019-06-26T19:34:46.486Z,28.60
2019-06-26T19:37:17.052Z,28.70
2019-06-26T19:39:47.387Z,28.60
2019-06-26T19:42:17.700Z,28.50
2019-06-26T19:44:48.022Z,28.50
2019-06-26T19:47:18.565Z,28.50
2019-06-26T19:49:49.170Z,28.40
2019-06-26T19:52:19.930Z,28.30
2019-06-26T19:54:50.271Z,28.20
2019-06-26T19:57:20.985Z,28.20
2019-06-26T19:59:51.557Z,28.10
2019-06-26T20:02:21.983Z,28.00
2019-06-26T20:04:52.394Z,28.00
2019-06-26T20:07:23.055Z,27.80
2019-06-26T20:09:53.610Z,27.70
2019-06-26T20:12:26.094Z,27.60
2019-06-26T20:14:57.680Z,27.50
2019-06-26T20:17:28.129Z,27.50
2019-06-26T20:19:58.479Z,27.50
2019-06-26T20:22:30.098Z,27.40
2019-06-26T20:25:00.340Z,27.30
2019-06-26T20:27:30.831Z,27.20
2019-06-26T20:30:01.090Z,27.20
2019-06-26T20:32:32.048Z,27.20
2019-06-26T20:35:02.469Z,27.10
2019-06-26T20:37:36.767Z,27.10
2019-06-26T20:40:08.774Z,27.00
2019-06-26T20:42:39.060Z,27.00
2019-06-26T20:45:09.879Z,27.00
2019-06-26T20:47:41.727Z,26.90
2019-06-26T20:50:12.448Z,26.80
2019-06-26T20:52:44.160Z,26.80
2019-06-26T20:55:15.785Z,26.80
2019-06-26T20:57:46.930Z,26.60
2019-06-26T21:00:17.766Z,26.40
2019-06-26T21:02:48.276Z,26.40
2019-06-26T21:05:19.042Z,26.30
2019-06-26T21:07:50.646Z,26.20
2019-06-26T21:10:21.005Z,26.20
2019-06-26T21:12:51.514Z,26.20
2019-06-26T21:15:22.951Z,26.10
2019-06-26T21:17:55.459Z,26.10
2019-06-26T21:20:30.022Z,26.10
2019-06-26T21:23:02.211Z,26.00
2019-06-26T21:25:36.140Z,26.10
2019-06-26T21:28:07.999Z,26.00
2019-06-26T21:30:40.210Z,26.00
2019-06-26T21:33:11.701Z,26.00
2019-06-26T21:35:42.097Z,26.00
2019-06-26T21:38:13.047Z,26.00
2019-06-26T21:40:44.889Z,26.00
2019-06-26T21:43:16.224Z,26.00
2019-06-26T21:45:47.097Z,26.00
2019-06-26T21:48:18.185Z,26.00
2019-06-26T21:50:49.751Z,25.90
2019-06-26T21:53:20.672Z,25.80
2019-06-26T21:55:51.932Z,25.80
2019-06-26T21:58:32.762Z,25.70
2019-06-26T22:01:03.267Z,25.70
2019-06-26T22:03:34.629Z,25.60
2019-06-26T22:06:08.246Z,25.60
2019-06-26T22:08:38.556Z,25.60
2019-06-26T22:11:09.822Z,25.60
2019-06-26T22:13:40.142Z,25.70
2019-06-26T22:16:10.354Z,25.70
2019-06-26T22:18:40.737Z,25.70
2019-06-26T22:21:11.094Z,25.70
2019-06-26T22:23:41.529Z,25.60
2019-06-26T22:26:14.318Z,25.60
2019-06-26T22:28:44.197Z,25.60
2019-06-26T22:31:14.863Z,25.60
2019-06-26T22:33:45.266Z,25.60
2019-06-26T22:36:15.634Z,25.60
2019-06-26T22:38:46.018Z,25.60
2019-06-26T22:41:16.370Z,25.60
2019-06-26T22:43:47.730Z,25.60
2019-06-26T22:46:18.165Z,25.50
2019-06-26T22:48:48.781Z,25.60
2019-06-26T22:51:19.382Z,25.70
2019-06-26T22:53:51.215Z,25.80
2019-06-26T22:56:22.938Z,25.80
2019-06-26T22:58:53.260Z,26.00
2019-06-26T23:01:23.723Z,26.00
2019-06-26T23:03:54.486Z,26.10
2019-06-26T23:06:24.933Z,26.10
2019-06-26T23:08:55.460Z,26.20
2019-06-26T23:11:25.853Z,26.30
2019-06-26T23:13:55.980Z,26.20
2019-06-26T23:16:26.233Z,26.30
2019-06-26T23:18:56.420Z,26.30
2019-06-26T23:21:26.809Z,26.40
2019-06-26T23:23:57.685Z,26.40
2019-06-26T23:26:28.107Z,26.40
2019-06-26T23:28:59.486Z,26.70
2019-06-26T23:31:29.936Z,26.80
2019-06-26T23:34:00.330Z,26.90
2019-06-26T23:36:30.767Z,27.00
2019-06-26T23:39:01.044Z,27.10
2019-06-26T23:41:31.239Z,27.20
2019-06-26T23:44:01.537Z,27.50
2019-06-26T23:46:31.895Z,27.50
2019-06-26T23:49:02.220Z,27.60
2019-06-26T23:51:32.864Z,27.60
2019-06-26T23:54:03.287Z,27.70
2019-06-26T23:56:40.504Z,27.90
2019-06-26T23:59:05.718Z,28.10
